createdAt,value
2023-10-22T00:00:13.987Z,75.31
2023-10-22T00:01:57.376Z,75.32
2023-10-22T00:03:41.093Z,75.44
2023-10-22T00:06:01.380Z,75.25
2023-10-22T00:07:07.865Z,75.31
2023-10-22T00:09:28.400Z,75.4
2023-10-22T00:10:34.746Z,75.35
2023-10-22T00:12:55.280Z,75.48
2023-10-22T00:14:01.697Z,75.3
2023-10-22T00:15:45.181Z,75.25
2023-10-22T00:17:28.623Z,75.37
2023-10-22T00:19:12.676Z,75.38
2023-10-22T00:20:55.467Z,75.25
2023-10-22T00:22:38.903Z,75.17
2023-10-22T00:24:59.374Z,75.16
2023-10-22T00:26:07.582Z,75.07
2023-10-22T00:27:49.348Z,75.11
2023-10-22T00:29:32.810Z,75.08
2023-10-22T00:31:16.242Z,75.33
2023-10-22T00:32:59.949Z,75.27
2023-10-22T00:34:43.479Z,75.23
2023-10-22T00:36:26.604Z,75.22
2023-10-22T00:37:32.960Z,75.18
2023-10-22T00:38:39.393Z,75.2
2023-10-22T00:39:45.795Z,75.41
2023-10-22T00:41:58.647Z,75.47
2023-10-22T00:43:04.997Z,75.36
2023-10-22T00:45:17.814Z,75.33
2023-10-22T00:47:30.671Z,75.46
2023-10-22T00:48:37.097Z,75.25
2023-10-22T00:52:03.833Z,75.22
2023-10-22T00:53:47.257Z,75.35
2023-10-22T00:55:30.769Z,75.44
2023-10-22T00:57:14.248Z,75.31
2023-10-22T00:59:34.788Z,75.51
2023-10-22T01:01:18.326Z,75.8
2023-10-22T01:02:24.557Z,75.35
2023-10-22T01:04:45.202Z,75.4
2023-10-22T01:05:51.585Z,75.42
2023-10-22T01:09:18.546Z,75.38
2023-10-22T01:11:01.945Z,75.51
2023-10-22T01:12:45.429Z,75.51
2023-10-22T01:15:42.948Z,75.4
2023-10-22T01:16:49.315Z,75.24
2023-10-22T01:19:09.895Z,75.64
2023-10-22T01:21:30.602Z,75.43
2023-10-22T01:24:27.973Z,75.34
2023-10-22T01:26:11.440Z,75.22
2023-10-22T01:28:31.973Z,75.56
2023-10-22T01:31:29.593Z,75.5
2023-10-22T01:33:13.092Z,75.34
2023-10-22T01:35:33.617Z,75.44
2023-10-22T01:37:16.964Z,75.42
2023-10-22T01:39:00.481Z,75.44
2023-10-22T01:41:20.865Z,75.56
2023-10-22T01:42:27.371Z,75.55
2023-10-22T01:44:10.832Z,75.43
2023-10-22T01:45:54.341Z,75.35
2023-10-22T01:47:37.795Z,75.47
2023-10-22T01:49:21.201Z,75.23
2023-10-22T01:51:04.676Z,75.36
2023-10-22T01:53:54.511Z,75.46
2023-10-22T01:55:00.874Z,75.33
2023-10-22T01:56:44.269Z,75.4
2023-10-22T01:59:04.747Z,75.43
2023-10-22T02:02:02.375Z,75.42
2023-10-22T02:03:45.871Z,75.33
2023-10-22T02:06:06.285Z,75.58
2023-10-22T02:08:26.860Z,76
2023-10-22T02:10:47.399Z,75.51
2023-10-22T02:13:07.962Z,77.06
2023-10-22T02:15:28.608Z,75.98
2023-10-22T02:17:11.818Z,76.2
2023-10-22T02:18:55.278Z,75.77
2023-10-22T02:20:38.783Z,76.11
2023-10-22T02:22:22.209Z,75.54
2023-10-22T02:24:05.709Z,75.4
2023-10-22T02:25:49.123Z,75.53
2023-10-22T02:27:32.612Z,75.35
2023-10-22T02:29:16.051Z,75.45
2023-10-22T02:30:59.548Z,75.42
2023-10-22T02:32:42.948Z,75.53
2023-10-22T02:34:26.365Z,75.55
2023-10-22T02:35:32.739Z,75.45
2023-10-22T02:36:39.185Z,75.39
2023-10-22T02:37:45.558Z,75.51
2023-10-22T02:38:52.057Z,75.88
2023-10-22T02:39:58.366Z,75.4
2023-10-22T02:41:04.772Z,75.36
2023-10-22T02:42:11.241Z,75.56
2023-10-22T02:43:17.845Z,75.47
2023-10-22T02:44:24.005Z,75.57
2023-10-22T02:45:30.409Z,75.23
2023-10-22T02:46:36.788Z,75.46
2023-10-22T02:47:43.162Z,75.32
2023-10-22T02:48:49.596Z,75.31
2023-10-22T02:49:56.002Z,75.27
2023-10-22T02:51:02.483Z,75.13
2023-10-22T02:52:08.818Z,75.45
2023-10-22T02:53:15.214Z,75.88
2023-10-22T02:54:21.603Z,75.51
2023-10-22T02:57:40.868Z,75.21
2023-10-22T02:58:47.237Z,75.37
2023-10-22T02:59:53.688Z,75.93
2023-10-22T03:02:06.441Z,75.62
2023-10-22T03:04:27.023Z,75.58
2023-10-22T03:05:33.327Z,75.87
2023-10-22T03:07:16.682Z,75.55
2023-10-22T03:09:00.351Z,75.62
2023-10-22T03:10:43.742Z,75.65
2023-10-22T03:12:27.157Z,76.37
2023-10-22T03:14:10.626Z,75.78
2023-10-22T03:16:31.204Z,75.81
2023-10-22T03:17:37.611Z,78.29
2023-10-22T03:19:21.051Z,76
2023-10-22T03:21:04.418Z,76.92
2023-10-22T03:22:10.821Z,78.46
2023-10-22T03:24:23.665Z,76.72
2023-10-22T03:25:30.071Z,77.37
2023-10-22T03:26:36.479Z,76.87
2023-10-22T03:29:55.725Z,76.48
2023-10-22T03:31:39.074Z,76.95
2023-10-22T03:32:45.508Z,76.38
2023-10-22T03:35:05.930Z,76.85
2023-10-22T03:36:12.380Z,76.69
2023-10-22T03:37:55.806Z,77.63
2023-10-22T03:39:39.307Z,76.83
2023-10-22T03:41:22.749Z,76.3
2023-10-22T03:43:06.196Z,77.14
2023-10-22T03:45:26.718Z,76.8
2023-10-22T03:46:33.197Z,76.99
2023-10-22T03:48:16.653Z,76.79
2023-10-22T03:53:19.152Z,76.66
2023-10-22T03:55:02.624Z,76.61
2023-10-22T03:57:23.111Z,77.19
2023-10-22T03:59:43.684Z,76.32
2023-10-22T04:02:04.209Z,76.31
2023-10-22T04:04:24.698Z,77.97
2023-10-22T04:06:45.204Z,77.27
2023-10-22T04:09:44.155Z,76.59
2023-10-22T04:11:26.314Z,76.07
2023-10-22T04:13:46.753Z,76.71
2023-10-22T04:15:30.150Z,76.51
2023-10-22T04:17:13.622Z,77.22
2023-10-22T04:18:57.082Z,78.28
2023-10-22T04:20:40.572Z,78.26
2023-10-22T04:22:24.013Z,78.59
2023-10-22T04:24:07.544Z,78.21
2023-10-22T04:28:11.825Z,77.14
2023-10-22T04:29:17.932Z,76.95
2023-10-22T04:31:01.429Z,76.96
2023-10-22T04:33:21.970Z,78.09
2023-10-22T04:34:28.287Z,77.04
2023-10-22T04:36:11.786Z,77.2
2023-10-22T04:37:55.204Z,77.87
2023-10-22T04:39:38.697Z,78.12
2023-10-22T04:41:22.158Z,77.52
2023-10-22T04:43:05.628Z,77.94
2023-10-22T04:44:49.088Z,78.43
2023-10-22T04:47:09.596Z,77.68
2023-10-22T04:48:16.154Z,77.01
2023-10-22T04:49:59.372Z,76.7
2023-10-22T04:51:05.854Z,78.24
2023-10-22T04:52:12.188Z,77.25
2023-10-22T04:53:18.590Z,76.79
2023-10-22T04:54:25.041Z,78.77
2023-10-22T04:55:31.402Z,76.79
2023-10-22T04:57:44.203Z,78.35
2023-10-22T04:58:50.595Z,78.49
2023-10-22T04:59:57.122Z,78.03
2023-10-22T05:01:03.423Z,77.53
2023-10-22T05:02:09.799Z,77.07
2023-10-22T05:05:29.070Z,78.63
2023-10-22T05:06:35.605Z,78.63
2023-10-22T05:07:42.058Z,78.77
2023-10-22T05:09:25.530Z,78.85
2023-10-22T05:11:08.896Z,78.84
2023-10-22T05:14:36.281Z,78.07
2023-10-22T05:16:19.356Z,77.25
2023-10-22T05:18:02.860Z,78.74
2023-10-22T05:19:46.239Z,79.45
2023-10-22T05:21:29.693Z,77.43
2023-10-22T05:23:13.142Z,77.04
2023-10-22T05:25:33.737Z,77.21
2023-10-22T05:26:40.184Z,77.91
2023-10-22T05:28:23.644Z,78.9
2023-10-22T05:30:07.243Z,78.05
2023-10-22T05:31:50.669Z,77.1
2023-10-22T05:33:34.135Z,76.87
2023-10-22T05:35:17.555Z,77.55
2023-10-22T05:37:01.040Z,77.75
2023-10-22T05:39:21.551Z,76.75
2023-10-22T05:42:48.453Z,77.71
2023-10-22T05:43:54.867Z,78.41
2023-10-22T05:45:38.383Z,77.93
2023-10-22T05:47:21.779Z,77.66
2023-10-22T05:49:05.374Z,76.95
2023-10-22T05:50:48.691Z,77.22
2023-10-22T05:53:01.453Z,77.56
2023-10-22T05:54:10.333Z,76.79
2023-10-22T05:56:20.568Z,76.74
2023-10-22T05:57:26.984Z,77.85
2023-10-22T05:58:33.451Z,77.2
2023-10-22T05:59:39.855Z,77.11
2023-10-22T06:00:46.252Z,77.95
2023-10-22T06:02:59.130Z,77.31
2023-10-22T06:04:42.532Z,77.05
2023-10-22T06:06:25.986Z,78.81
2023-10-22T06:08:09.375Z,77.71
2023-10-22T06:09:52.855Z,77.27
2023-10-22T06:12:13.445Z,77.27
2023-10-22T06:13:19.752Z,77.92
2023-10-22T06:15:03.308Z,76.66
2023-10-22T06:18:30.286Z,77.16
2023-10-22T06:20:13.648Z,77.12
2023-10-22T06:21:57.118Z,77.22
2023-10-22T06:23:40.594Z,77.37
2023-10-22T06:25:23.923Z,76.8
2023-10-22T06:27:07.521Z,76.44
2023-10-22T06:28:50.924Z,77.29
2023-10-22T06:30:34.413Z,79.39
2023-10-22T06:32:17.898Z,77.98
2023-10-22T06:34:01.332Z,77.76
2023-10-22T06:35:44.854Z,78.61
2023-10-22T06:37:28.170Z,77.41
2023-10-22T06:39:11.667Z,78.41
2023-10-22T06:40:18.023Z,78.09
2023-10-22T06:41:24.445Z,78.28
2023-10-22T06:42:30.837Z,79.27
2023-10-22T06:45:50.084Z,78.7
2023-10-22T06:46:56.453Z,79.2
2023-10-22T06:48:03.009Z,79.11
2023-10-22T06:50:15.663Z,77.37
2023-10-22T06:51:22.081Z,77.74
2023-10-22T06:53:05.483Z,78.41
2023-10-22T06:54:48.885Z,77.38
2023-10-22T06:56:32.279Z,76.83
2023-10-22T06:58:15.760Z,77.91
2023-10-22T06:59:59.063Z,77.56
2023-10-22T07:01:42.621Z,78.56
2023-10-22T07:03:26.101Z,78.53
2023-10-22T07:05:09.506Z,79.35
2023-10-22T07:07:29.981Z,77.78
2023-10-22T07:08:36.467Z,76.78
2023-10-22T07:10:19.964Z,78.81
2023-10-22T07:12:03.473Z,78.97
2023-10-22T07:13:46.906Z,78.16
2023-10-22T07:15:30.359Z,78.89
2023-10-22T07:18:20.220Z,79.08
2023-10-22T07:19:26.532Z,79.4
2023-10-22T07:20:32.940Z,79.44
2023-10-22T07:22:45.718Z,79.4
2023-10-22T07:23:53.913Z,78.75
2023-10-22T07:24:58.555Z,79
2023-10-22T07:26:04.881Z,78.9
2023-10-22T07:27:11.365Z,78.85
2023-10-22T07:28:17.752Z,78.46
2023-10-22T07:30:01.191Z,78.81
2023-10-22T07:31:44.650Z,79.42
2023-10-22T07:33:28.185Z,78.79
2023-10-22T07:35:48.635Z,78.14
2023-10-22T07:36:55.009Z,78.89
2023-10-22T07:39:15.536Z,78.85
2023-10-22T07:40:21.921Z,78.89
2023-10-22T07:42:42.470Z,78.46
2023-10-22T07:43:48.839Z,78.54
2023-10-22T07:45:32.309Z,78.02
2023-10-22T07:46:38.642Z,78.27
2023-10-22T07:48:51.419Z,78.02
2023-10-22T07:49:57.847Z,78.16
2023-10-22T07:51:04.280Z,79.29
2023-10-22T07:52:10.645Z,77.73
2023-10-22T07:54:23.655Z,79.01
2023-10-22T07:55:29.884Z,77.87
2023-10-22T07:56:36.293Z,78.31
2023-10-22T07:58:19.679Z,79.28
2023-10-22T08:00:03.186Z,79.04
2023-10-22T08:01:46.596Z,78.49
2023-10-22T08:03:30.248Z,79.17
2023-10-22T08:05:15.644Z,78.9
2023-10-22T08:06:56.982Z,78.66
2023-10-22T08:08:40.445Z,79.44
2023-10-22T08:10:23.930Z,78.42
2023-10-22T08:12:07.425Z,78.08
2023-10-22T08:14:57.176Z,76.65
2023-10-22T08:16:40.586Z,78.37
2023-10-22T08:18:53.496Z,79
2023-10-22T08:19:59.785Z,78.08
2023-10-22T08:21:43.129Z,78.61
2023-10-22T08:23:55.981Z,79.12
2023-10-22T08:25:02.424Z,78.87
2023-10-22T08:26:08.859Z,77.92
2023-10-22T08:27:52.280Z,77.24
2023-10-22T08:29:35.805Z,78.93
2023-10-22T08:31:56.244Z,78.07
2023-10-22T08:33:02.803Z,77.95
2023-10-22T08:34:46.124Z,78.54
2023-10-22T08:36:29.618Z,78.21
2023-10-22T08:38:12.964Z,76.6
2023-10-22T08:39:56.518Z,76.17
2023-10-22T08:43:23.422Z,76.81
2023-10-22T08:45:43.985Z,77.87
2023-10-22T08:46:50.361Z,77.68
2023-10-22T08:49:10.784Z,78.38
2023-10-22T08:50:17.341Z,77
2023-10-22T08:52:00.768Z,77.74
2023-10-22T08:53:44.240Z,77.48
2023-10-22T08:55:27.745Z,77.2
2023-10-22T08:57:11.213Z,77.29
2023-10-22T08:58:54.532Z,77.92
2023-10-22T09:01:15.155Z,76.97
2023-10-22T09:04:04.955Z,77.74
2023-10-22T09:05:11.350Z,77.68
2023-10-22T09:07:24.118Z,77.61
2023-10-22T09:08:30.565Z,77.95
2023-10-22T09:09:36.959Z,76.3
2023-10-22T09:10:43.252Z,77.04
2023-10-22T09:12:56.170Z,77.78
2023-10-22T09:15:08.995Z,75.93
2023-10-22T09:16:15.412Z,77.5
2023-10-22T09:17:58.808Z,76.73
2023-10-22T09:19:42.209Z,76.19
2023-10-22T09:21:25.704Z,77.54
2023-10-22T09:23:09.120Z,77.2
2023-10-22T09:24:52.853Z,76.81
2023-10-22T09:26:36.051Z,76.49
2023-10-22T09:28:19.498Z,77.04
2023-10-22T09:30:02.988Z,77.3
2023-10-22T09:31:46.505Z,76.85
2023-10-22T09:34:36.364Z,77.16
2023-10-22T09:35:42.557Z,76.59
2023-10-22T09:36:49.031Z,76.82
2023-10-22T09:37:55.472Z,76.77
2023-10-22T09:39:01.841Z,76.91
2023-10-22T09:40:08.224Z,75.87
2023-10-22T09:42:21.079Z,76.36
2023-10-22T09:43:27.440Z,75.01
2023-10-22T09:44:33.840Z,74.26
2023-10-22T09:46:17.307Z,74.58
2023-10-22T09:48:11.161Z,75.73
2023-10-22T09:49:44.164Z,75.79
2023-10-22T09:51:27.651Z,74.26
2023-10-22T09:53:48.181Z,74.7
2023-10-22T09:54:54.566Z,76.05
2023-10-22T09:56:38.010Z,75.9
2023-10-22T09:58:21.465Z,73.66
2023-10-22T10:00:50.221Z,74.87
2023-10-22T10:02:25.447Z,73.27
2023-10-22T10:03:31.914Z,74.17
2023-10-22T10:05:44.616Z,72.21
2023-10-22T10:07:27.976Z,73.05
2023-10-22T10:09:48.489Z,73.16
2023-10-22T10:12:46.073Z,71.81
2023-10-22T10:14:29.526Z,71.26
2023-10-22T10:16:50.152Z,73.11
2023-10-22T10:19:47.658Z,72.78
2023-10-22T10:21:31.121Z,71.95
2023-10-22T10:24:28.730Z,72.04
2023-10-22T10:26:49.245Z,71.91
2023-10-22T10:28:32.611Z,71.1
2023-10-22T10:30:53.152Z,70.81
2023-10-22T10:31:59.535Z,70.9
2023-10-22T10:33:43.097Z,70.59
2023-10-22T10:35:26.459Z,70.53
2023-10-22T10:37:47.023Z,70.89
2023-10-22T10:40:36.836Z,69.83
2023-10-22T10:47:30.855Z,67.5
2023-10-22T10:49:14.230Z,67.41
2023-10-22T10:50:57.534Z,67.28
2023-10-22T10:56:15.700Z,66.01
2023-10-22T10:58:36.226Z,66.35
2023-10-22T11:00:19.652Z,64.68
2023-10-22T11:05:00.748Z,64.24
2023-10-22T11:09:04.739Z,64.66
2023-10-22T11:11:25.181Z,62.9
2023-10-22T11:16:06.309Z,63.92
2023-10-22T11:18:26.803Z,64.61
2023-10-22T11:20:47.206Z,64.77
2023-10-22T11:23:07.803Z,65.05
2023-10-22T11:26:05.307Z,65.25
2023-10-22T11:30:09.384Z,63.79
2023-10-22T11:33:07.056Z,64.01
2023-10-22T11:34:50.430Z,63.84
2023-10-22T11:37:48.048Z,63.79
2023-10-22T11:40:45.584Z,64.28
2023-10-22T11:42:29.133Z,64.4
2023-10-22T11:44:12.512Z,64.67
2023-10-22T11:46:33.141Z,64.6
2023-10-22T11:50:07.702Z,65.15
2023-10-22T11:53:34.648Z,65.37
2023-10-22T11:55:55.146Z,64.16
2023-10-22T11:58:52.731Z,65.65
2023-10-22T12:00:36.270Z,64.43
2023-10-22T12:03:33.904Z,63.73
2023-10-22T12:05:54.284Z,64.45
2023-10-22T12:07:37.754Z,62.21
2023-10-22T12:09:58.543Z,64.33
2023-10-22T12:12:18.861Z,66.41
2023-10-22T12:14:39.324Z,64.94
2023-10-22T12:17:36.932Z,66.47
2023-10-22T12:19:57.396Z,66.45
2023-10-22T12:23:26.244Z,65.48
2023-10-22T12:24:30.738Z,65.98
2023-10-22T12:26:14.195Z,65.52
2023-10-22T12:28:34.681Z,65.8
2023-10-22T12:31:24.597Z,63.44
2023-10-22T12:33:45.098Z,62.35
2023-10-22T12:35:28.540Z,61.85
2023-10-22T12:36:34.973Z,62.55
2023-10-22T12:38:55.590Z,61.47
2023-10-22T12:40:38.956Z,64.52
2023-10-22T12:41:45.321Z,63.54
2023-10-22T12:47:32.715Z,63.13
2023-10-22T12:52:06.162Z,64.82
2023-10-22T12:55:33.050Z,63.45
2023-10-22T12:59:37.013Z,60.82
2023-10-22T13:00:43.420Z,63.81
2023-10-22T13:03:03.973Z,64.86
2023-10-22T13:05:53.873Z,64.85
2023-10-22T13:09:20.770Z,64.19
2023-10-22T13:13:24.705Z,62.2
2023-10-22T13:15:08.230Z,64.49
2023-10-22T13:17:58.145Z,64.87
2023-10-22T13:19:41.554Z,62.9
2023-10-22T13:23:45.492Z,64.22
2023-10-22T13:24:51.923Z,64.16
2023-10-22T13:26:35.373Z,64.51
2023-10-22T13:28:18.859Z,63.07
2023-10-22T13:30:02.433Z,63.78
2023-10-22T13:32:22.836Z,62.4
2023-10-22T13:35:12.709Z,62.48
2023-10-22T13:37:33.158Z,61.65
2023-10-22T13:42:06.591Z,62.35
2023-10-22T13:43:50.033Z,59.69
2023-10-22T13:45:33.508Z,63.39
2023-10-22T13:49:00.451Z,63.6
2023-10-22T13:50:44.621Z,64.07
2023-10-22T13:52:27.347Z,64.39
2023-10-22T13:54:47.967Z,64.49
2023-10-22T13:55:54.259Z,64.51
2023-10-22T13:57:37.732Z,64.18
2023-10-22T13:59:21.158Z,64.21
2023-10-22T14:01:04.788Z,63.86
2023-10-22T14:04:31.925Z,64.17
2023-10-22T14:06:14.956Z,62.97
2023-10-22T14:07:58.472Z,63.5
2023-10-22T14:09:41.929Z,63.73
2023-10-22T14:11:25.392Z,62.89
2023-10-22T14:14:52.395Z,62.77
2023-10-22T14:16:35.797Z,63.93
2023-10-22T14:18:19.357Z,63.33
2023-10-22T14:20:39.806Z,63.31
2023-10-22T14:23:29.566Z,63.01
2023-10-22T14:25:13.109Z,63.29
2023-10-22T14:27:33.694Z,63.36
2023-10-22T14:28:40.057Z,63.3
2023-10-22T14:30:23.585Z,63.34
2023-10-22T14:32:06.891Z,63.53
2023-10-22T14:34:29.177Z,63.62
2023-10-22T14:36:11.014Z,63.65
2023-10-22T14:37:17.376Z,63.57
2023-10-22T14:39:37.891Z,63.63
2023-10-22T14:40:44.324Z,64.14
2023-10-22T14:42:27.787Z,64.05
2023-10-22T14:44:11.243Z,64.04
2023-10-22T14:45:54.744Z,63.99
2023-10-22T14:47:38.211Z,64
2023-10-22T14:49:21.620Z,64.39
2023-10-22T14:51:42.075Z,64.33
2023-10-22T14:56:15.327Z,64.79
2023-10-22T14:59:42.355Z,64.61
2023-10-22T15:01:25.869Z,65.07
2023-10-22T15:03:09.369Z,64.9
2023-10-22T15:04:52.999Z,65.18
2023-10-22T15:06:36.238Z,65.5
2023-10-22T15:08:19.571Z,65.6
2023-10-22T15:10:03.158Z,65.36
2023-10-22T15:11:46.535Z,65.69
2023-10-22T15:14:07.040Z,66.02
2023-10-22T15:16:27.601Z,65.96
2023-10-22T15:19:25.146Z,66.21
2023-10-22T15:21:08.712Z,66.3
2023-10-22T15:23:29.166Z,66.27
2023-10-22T15:25:49.706Z,66.54
2023-10-22T15:28:10.182Z,66.44
2023-10-22T15:30:30.813Z,66.54
2023-10-22T15:33:28.325Z,66.52
2023-10-22T15:35:11.700Z,66.53
2023-10-22T15:36:55.165Z,66.64
2023-10-22T15:38:38.640Z,66.7
2023-10-22T15:40:59.134Z,66.74
2023-10-22T15:42:05.553Z,66.94
2023-10-22T15:43:49.001Z,66.87
2023-10-22T15:47:15.938Z,66.99
2023-10-22T15:48:59.455Z,67.16
2023-10-22T15:51:20.110Z,67.21
2023-10-22T15:52:26.322Z,67.29
2023-10-22T15:54:09.836Z,67.38
2023-10-22T15:56:30.327Z,67.59
2023-10-22T15:57:36.737Z,67.61
2023-10-22T15:59:20.173Z,67.63
2023-10-22T16:01:03.726Z,67.54
2023-10-22T16:03:24.250Z,67.77
2023-10-22T16:04:30.639Z,67.78
2023-10-22T16:06:14.962Z,67.78
2023-10-22T16:09:41.214Z,67.92
2023-10-22T16:11:24.473Z,67.96
2023-10-22T16:13:07.910Z,68.08
2023-10-22T16:14:51.358Z,67.89
2023-10-22T16:16:34.862Z,67.93
2023-10-22T16:18:18.371Z,68.12
2023-10-22T16:20:01.938Z,67.85
2023-10-22T16:21:45.242Z,67.94
2023-10-22T16:23:28.683Z,67.96
2023-10-22T16:25:41.413Z,67.99
2023-10-22T16:27:54.205Z,68.12
2023-10-22T16:29:00.614Z,68.12
2023-10-22T16:32:19.820Z,68.38
2023-10-22T16:33:26.254Z,68.29
2023-10-22T16:34:32.672Z,68.43
2023-10-22T16:35:39.040Z,68.31
2023-10-22T16:36:45.451Z,68.34
2023-10-22T16:38:28.864Z,68.24
2023-10-22T16:40:12.219Z,68.29
2023-10-22T16:41:55.751Z,68.26
2023-10-22T16:43:39.267Z,68.4
2023-10-22T16:45:22.766Z,68.45
2023-10-22T16:48:49.638Z,68.39
2023-10-22T16:50:33.052Z,68.48
2023-10-22T16:52:16.531Z,68.61
2023-10-22T16:53:59.999Z,68.64
2023-10-22T16:55:43.478Z,68.54
2023-10-22T16:58:04.040Z,68.52
2023-10-22T16:59:49.118Z,68.58
2023-10-22T17:00:53.866Z,68.48
2023-10-22T17:02:37.440Z,68.56
2023-10-22T17:04:20.803Z,68.74
2023-10-22T17:06:04.420Z,68.72
2023-10-22T17:09:31.229Z,68.74
2023-10-22T17:11:14.638Z,68.68
2023-10-22T17:12:58.109Z,68.76
2023-10-22T17:14:51.640Z,68.82
2023-10-22T17:16:25.042Z,68.78
2023-10-22T17:19:52.039Z,68.8
2023-10-22T17:22:49.498Z,68.76
2023-10-22T17:24:32.942Z,68.79
2023-10-22T17:26:16.239Z,68.74
2023-10-22T17:29:13.851Z,68.77
2023-10-22T17:31:34.459Z,68.81
2023-10-22T17:33:17.847Z,68.76
2023-10-22T17:35:38.385Z,68.71
2023-10-22T17:37:58.801Z,68.78
2023-10-22T17:40:56.444Z,68.88
2023-10-22T17:42:40.031Z,68.87
2023-10-22T17:45:37.545Z,68.87
2023-10-22T17:47:58.082Z,68.98
2023-10-22T17:50:18.469Z,68.95
2023-10-22T17:52:01.923Z,68.87
2023-10-22T17:53:45.379Z,68.9
2023-10-22T17:54:51.811Z,68.85
2023-10-22T17:57:12.381Z,68.89
2023-10-22T17:58:18.749Z,68.94
2023-10-22T18:00:02.329Z,69.01
2023-10-22T18:01:45.731Z,69.02
2023-10-22T18:04:06.182Z,68.88
2023-10-22T18:05:49.566Z,68.93
2023-10-22T18:09:53.555Z,68.92
2023-10-22T18:10:59.940Z,68.96
2023-10-22T18:12:43.413Z,68.87
2023-10-22T18:14:26.887Z,69.35
2023-10-22T18:16:10.260Z,69.07
2023-10-22T18:17:53.879Z,69.06
2023-10-22T18:19:41.228Z,69.47
2023-10-22T18:23:41.192Z,69.43
2023-10-22T18:26:01.738Z,69.21
2023-10-22T18:27:45.189Z,68.98
2023-10-22T18:30:42.718Z,68.94
2023-10-22T18:31:49.116Z,68.92
2023-10-22T18:35:23.685Z,69.02
2023-10-22T18:36:30.132Z,68.89
2023-10-22T18:38:50.623Z,68.92
2023-10-22T18:41:52.277Z,68.98
2023-10-22T18:43:31.697Z,68.76
2023-10-22T18:45:52.335Z,68.79
2023-10-22T18:48:12.814Z,68.63
2023-10-22T18:49:56.134Z,68.86
2023-10-22T18:51:39.621Z,68.86
2023-10-22T18:53:23.032Z,68.8
2023-10-22T18:55:43.603Z,68.74
2023-10-22T18:57:27.068Z,68.74
2023-10-22T18:58:35.379Z,69.03
2023-10-22T19:00:54.091Z,68.95
2023-10-22T19:02:00.351Z,68.66
2023-10-22T19:03:43.892Z,68.63
2023-10-22T19:05:27.260Z,68.79
2023-10-22T19:07:10.695Z,68.66
2023-10-22T19:08:17.052Z,69.42
2023-10-22T19:09:23.414Z,69.07
2023-10-22T19:11:36.321Z,68.98
2023-10-22T19:12:42.908Z,68.94
2023-10-22T19:13:49.082Z,68.78
2023-10-22T19:14:55.485Z,68.77
2023-10-22T19:16:01.953Z,68.97
2023-10-22T19:17:08.311Z,68.98
2023-10-22T19:18:14.793Z,69.1
2023-10-22T19:19:21.090Z,68.88
2023-10-22T19:20:27.489Z,68.87
2023-10-22T19:21:33.917Z,68.88
2023-10-22T19:23:46.717Z,68.77
2023-10-22T19:24:53.044Z,68.82
2023-10-22T19:26:36.528Z,68.93
2023-10-22T19:28:20.009Z,68.95
2023-10-22T19:30:03.441Z,69.23
2023-10-22T19:31:46.877Z,69.09
2023-10-22T19:33:30.369Z,69.13
2023-10-22T19:35:50.904Z,69.06
2023-10-22T19:37:34.415Z,69.16
2023-10-22T19:39:17.891Z,69.04
2023-10-22T19:40:24.237Z,69.18
2023-10-22T19:42:44.774Z,69.45
2023-10-22T19:44:28.216Z,69.31
2023-10-22T19:46:11.632Z,69.16
2023-10-22T19:47:18.055Z,69.3
2023-10-22T19:48:24.451Z,69.35
2023-10-22T19:49:30.812Z,69.34
2023-10-22T19:50:37.212Z,69.32
2023-10-22T19:55:02.758Z,69.43
2023-10-22T19:56:09.237Z,69.44
2023-10-22T19:57:15.683Z,69.45
2023-10-22T19:59:28.464Z,69.51
2023-10-22T20:01:11.967Z,69.43
2023-10-22T20:02:55.587Z,69.69
2023-10-22T20:04:39.336Z,69.69
2023-10-22T20:06:22.391Z,69.8
2023-10-22T20:08:05.754Z,69.66
2023-10-22T20:10:42.177Z,69.77
2023-10-22T20:11:32.667Z,69.73
2023-10-22T20:14:59.619Z,69.61
2023-10-22T20:16:43.140Z,69.86
2023-10-22T20:21:53.427Z,69.98
2023-10-22T20:24:51.047Z,70.03
2023-10-22T20:25:57.287Z,70.07
2023-10-22T20:31:15.521Z,70.28
2023-10-22T20:35:19.459Z,70.08
2023-10-22T20:38:54.132Z,70.13
2023-10-22T20:40:00.658Z,70.1
2023-10-22T20:43:35.164Z,70.06
2023-10-22T20:45:18.696Z,70.11
2023-10-22T20:47:39.181Z,70.17
2023-10-22T20:49:59.692Z,70.02
2023-10-22T20:52:20.245Z,70.17
2023-10-22T20:54:03.684Z,70.11
2023-10-22T20:56:24.230Z,70.34
2023-10-22T20:59:21.843Z,70.28
2023-10-22T21:01:42.278Z,70.29
2023-10-22T21:03:25.922Z,70.22
2023-10-22T21:06:23.411Z,70.29
2023-10-22T21:08:43.922Z,70.68
2023-10-22T21:10:27.381Z,70.5
2023-10-22T21:14:01.996Z,70.18
2023-10-22T21:15:08.417Z,70.26
2023-10-22T21:17:28.970Z,70.41
2023-10-22T21:19:12.345Z,70.52
2023-10-22T21:20:55.782Z,70.33
2023-10-22T21:24:59.790Z,70.6
2023-10-22T21:26:43.248Z,70.65
2023-10-22T21:28:26.707Z,70.95
2023-10-22T21:29:33.095Z,70.95
2023-10-22T21:31:16.574Z,70.87
2023-10-22T21:33:37.213Z,71.07
2023-10-22T21:34:43.402Z,70.96
2023-10-22T21:36:27.009Z,71.08
2023-10-22T21:38:10.427Z,71.19
2023-10-22T21:39:53.896Z,71.27
2023-10-22T21:42:14.444Z,71.29
2023-10-22T21:43:20.843Z,71.18
2023-10-22T21:47:24.829Z,71.24
2023-10-22T21:49:45.195Z,71.27
2023-10-22T21:51:28.777Z,71.26
2023-10-22T21:53:49.234Z,71.31
2023-10-22T21:56:09.759Z,71.18
2023-10-22T21:58:30.378Z,71.4
2023-10-22T22:01:27.951Z,71.39
2023-10-22T22:05:31.846Z,71.09
2023-10-22T22:07:52.382Z,71.18
2023-10-22T22:10:12.909Z,71.08
2023-10-22T22:14:53.963Z,71.02
2023-10-22T22:17:51.580Z,71.15
2023-10-22T22:20:49.112Z,71.16
2023-10-22T22:22:32.629Z,71.22
2023-10-22T22:24:16.113Z,71.38
2023-10-22T22:26:36.493Z,71.37
2023-10-22T22:29:34.111Z,71.34
2023-10-22T22:31:17.710Z,71.36
2023-10-22T22:33:38.180Z,71.3
2023-10-22T22:37:12.822Z,71.38
2023-10-22T22:38:56.196Z,71.33
2023-10-22T22:40:39.794Z,71.16
2023-10-22T22:43:00.199Z,71.34
2023-10-22T22:45:57.850Z,71.37
2023-10-22T22:48:55.460Z,71.71
2023-10-22T22:50:38.896Z,71.49
2023-10-22T22:52:22.291Z,71.46
2023-10-22T22:54:42.825Z,71.33
2023-10-22T22:55:49.206Z,71.52
2023-10-22T22:58:09.732Z,71.82
2023-10-22T22:59:16.167Z,71.7
2023-10-22T23:00:59.710Z,71.48
2023-10-22T23:02:43.031Z,71.69
2023-10-22T23:04:26.443Z,71.72
2023-10-22T23:06:09.952Z,71.64
2023-10-22T23:07:53.387Z,71.93
2023-10-22T23:10:13.927Z,72.1
2023-10-22T23:11:57.421Z,71.9
2023-10-22T23:13:03.772Z,71.68
2023-10-22T23:15:24.358Z,71.6
2023-10-22T23:16:30.740Z,71.73
2023-10-22T23:18:14.297Z,71.81
2023-10-22T23:20:34.717Z,71.65
2023-10-22T23:21:41.160Z,71.63
2023-10-22T23:23:24.574Z,71.75
2023-10-22T23:25:08.019Z,71.93
2023-10-22T23:27:28.637Z,72.04
2023-10-22T23:30:55.572Z,72.03
2023-10-22T23:32:38.877Z,71.95
2023-10-22T23:34:22.332Z,72.19
2023-10-22T23:36:05.772Z,72.08
2023-10-22T23:39:32.808Z,71.94
2023-10-22T23:41:16.186Z,72.01
2023-10-22T23:44:43.106Z,72.03
2023-10-22T23:46:26.613Z,72.15
2023-10-22T23:48:10.077Z,72.26
2023-10-22T23:50:30.457Z,72.12
2023-10-22T23:52:13.855Z,72.2
2023-10-22T23:54:34.549Z,72.12
2023-10-22T23:56:54.985Z,72.03
